sensor_id;sensor_type;location;lat;lon;timestamp;pressure;altitude;pressure_sealevel;temperature;humidity
43125;BME280;49182;50.788;7.318;2022-08-14T00:01:08;100474.63;;;17.94;57.83
43125;BME280;49182;50.788;7.318;2022-08-14T00:03:38;100459.06;;;17.83;58.24
43125;BME280;49182;50.788;7.318;2022-08-14T00:06:07;100452.81;;;17.76;58.15
43125;BME280;49182;50.788;7.318;2022-08-14T00:08:54;100473.97;;;17.77;58.25
43125;BME280;49182;50.788;7.318;2022-08-14T00:11:25;100466.34;;;17.74;58.63
43125;BME280;49182;50.788;7.318;2022-08-14T00:13:57;100455.22;;;17.71;59.22
43125;BME280;49182;50.788;7.318;2022-08-14T00:16:23;100451.22;;;17.67;59.51
43125;BME280;49182;50.788;7.318;2022-08-14T00:19:11;100453.97;;;17.59;59.80
43125;BME280;49182;50.788;7.318;2022-08-14T00:21:47;100433.44;;;17.45;60.38
43125;BME280;49182;50.788;7.318;2022-08-14T00:24:16;100425.50;;;17.36;60.61
43125;BME280;49182;50.788;7.318;2022-08-14T00:26:56;100441.63;;;17.43;60.77
43125;BME280;49182;50.788;7.318;2022-08-14T00:29:29;100434.50;;;17.35;60.99
43125;BME280;49182;50.788;7.318;2022-08-14T00:31:58;100438.75;;;17.30;60.99
43125;BME280;49182;50.788;7.318;2022-08-14T00:34:26;100424.00;;;17.19;61.30
43125;BME280;49182;50.788;7.318;2022-08-14T00:37:11;100424.56;;;17.15;61.14
43125;BME280;49182;50.788;7.318;2022-08-14T00:39:38;100421.31;;;17.05;61.76
43125;BME280;49182;50.788;7.318;2022-08-14T00:42:06;100435.25;;;17.15;61.64
43125;BME280;49182;50.788;7.318;2022-08-14T00:44:47;100411.19;;;17.00;61.92
43125;BME280;49182;50.788;7.318;2022-08-14T00:47:15;100435.25;;;17.15;62.31
43125;BME280;49182;50.788;7.318;2022-08-14T00:49:44;100435.03;;;17.16;62.59
43125;BME280;49182;50.788;7.318;2022-08-14T00:52:12;100420.56;;;17.11;63.13
43125;BME280;49182;50.788;7.318;2022-08-14T00:54:45;100420.13;;;17.07;63.54
43125;BME280;49182;50.788;7.318;2022-08-14T00:57:12;100422.69;;;17.01;63.74
43125;BME280;49182;50.788;7.318;2022-08-14T00:59:39;100422.56;;;16.94;64.20
43125;BME280;49182;50.788;7.318;2022-08-14T01:02:05;100421.09;;;16.91;64.43
43125;BME280;49182;50.788;7.318;2022-08-14T01:04:35;100410.78;;;16.88;64.65
43125;BME280;49182;50.788;7.318;2022-08-14T01:07:22;100387.47;;;16.68;64.91
43125;BME280;49182;50.788;7.318;2022-08-14T01:09:50;100400.06;;;16.74;64.70
43125;BME280;49182;50.788;7.318;2022-08-14T01:12:19;100406.34;;;16.81;65.19
43125;BME280;49182;50.788;7.318;2022-08-14T01:14:54;100404.88;;;16.78;65.53
43125;BME280;49182;50.788;7.318;2022-08-14T01:17:26;100383.66;;;16.62;65.49
43125;BME280;49182;50.788;7.318;2022-08-14T01:19:54;100392.78;;;16.68;65.16
43125;BME280;49182;50.788;7.318;2022-08-14T01:22:22;100398.13;;;16.68;64.84
43125;BME280;49182;50.788;7.318;2022-08-14T01:24:55;100397.50;;;16.66;64.75
43125;BME280;49182;50.788;7.318;2022-08-14T01:27:24;100372.56;;;16.50;64.83
43125;BME280;49182;50.788;7.318;2022-08-14T01:29:55;100394.63;;;16.67;65.08
43125;BME280;49182;50.788;7.318;2022-08-14T01:32:29;100385.63;;;16.68;65.53
43125;BME280;49182;50.788;7.318;2022-08-14T01:35:01;100354.19;;;16.55;66.24
43125;BME280;49182;50.788;7.318;2022-08-14T01:37:48;100367.63;;;16.70;66.66
43125;BME280;49182;50.788;7.318;2022-08-14T01:40:22;100362.84;;;16.66;66.58
43125;BME280;49182;50.788;7.318;2022-08-14T01:42:59;100343.09;;;16.52;66.69
43125;BME280;49182;50.788;7.318;2022-08-14T01:45:28;100362.50;;;16.61;66.85
43125;BME280;49182;50.788;7.318;2022-08-14T01:48:05;100359.19;;;16.58;67.32
43125;BME280;49182;50.788;7.318;2022-08-14T01:50:39;100344.25;;;16.49;67.46
43125;BME280;49182;50.788;7.318;2022-08-14T01:53:08;100348.69;;;16.57;67.76
43125;BME280;49182;50.788;7.318;2022-08-14T01:55:36;100346.75;;;16.51;68.17
43125;BME280;49182;50.788;7.318;2022-08-14T01:58:03;100338.09;;;16.49;68.27
43125;BME280;49182;50.788;7.318;2022-08-14T02:00:47;100328.97;;;16.43;68.48
43125;BME280;49182;50.788;7.318;2022-08-14T02:03:14;100306.81;;;16.28;68.88
43125;BME280;49182;50.788;7.318;2022-08-14T02:05:41;100322.38;;;16.39;69.11
43125;BME280;49182;50.788;7.318;2022-08-14T02:08:10;100313.25;;;16.34;69.35
43125;BME280;49182;50.788;7.318;2022-08-14T02:10:38;100314.72;;;16.36;69.89
43125;BME280;49182;50.788;7.318;2022-08-14T02:13:13;100305.59;;;16.31;69.95
43125;BME280;49182;50.788;7.318;2022-08-14T02:15:42;100299.81;;;16.27;70.02
43125;BME280;49182;50.788;7.318;2022-08-14T02:18:09;100298.16;;;16.26;70.47
43125;BME280;49182;50.788;7.318;2022-08-14T02:20:41;100303.84;;;16.23;70.27
43125;BME280;49182;50.788;7.318;2022-08-14T02:23:09;100304.03;;;16.22;70.44
43125;BME280;49182;50.788;7.318;2022-08-14T02:25:37;100302.06;;;16.15;70.24
43125;BME280;49182;50.788;7.318;2022-08-14T02:28:05;100309.69;;;16.18;70.03
43125;BME280;49182;50.788;7.318;2022-08-14T02:30:52;100307.19;;;16.17;70.05
43125;BME280;49182;50.788;7.318;2022-08-14T02:33:19;100316.03;;;16.17;69.85
43125;BME280;49182;50.788;7.318;2022-08-14T02:35:46;100321.34;;;16.17;69.88
43125;BME280;49182;50.788;7.318;2022-08-14T02:38:31;100328.50;;;16.17;69.98
43125;BME280;49182;50.788;7.318;2022-08-14T02:41:01;100314.06;;;16.11;69.96
43125;BME280;49182;50.788;7.318;2022-08-14T02:43:36;100326.34;;;16.21;70.07
43125;BME280;49182;50.788;7.318;2022-08-14T02:46:14;100307.91;;;16.11;71.04
43125;BME280;49182;50.788;7.318;2022-08-14T02:48:53;100321.28;;;16.26;71.75
43125;BME280;49182;50.788;7.318;2022-08-14T02:51:31;100316.50;;;16.21;71.65
43125;BME280;49182;50.788;7.318;2022-08-14T02:54:00;100329.84;;;16.21;71.42
43125;BME280;49182;50.788;7.318;2022-08-14T02:56:29;100325.84;;;16.17;71.32
43125;BME280;49182;50.788;7.318;2022-08-14T02:59:16;100323.56;;;16.14;71.66
43125;BME280;49182;50.788;7.318;2022-08-14T03:01:46;100303.81;;;16.00;72.25
43125;BME280;49182;50.788;7.318;2022-08-14T03:04:21;100328.59;;;16.09;72.24
43125;BME280;49182;50.788;7.318;2022-08-14T03:06:48;100324.91;;;16.10;72.75
43125;BME280;49182;50.788;7.318;2022-08-14T03:09:35;100324.91;;;16.10;72.94
43125;BME280;49182;50.788;7.318;2022-08-14T03:12:22;100329.75;;;16.06;72.03
43125;BME280;49182;50.788;7.318;2022-08-14T03:14:58;100309.22;;;15.92;71.45
43125;BME280;49182;50.788;7.318;2022-08-14T03:17:25;100312.88;;;15.91;70.97
43125;BME280;49182;50.788;7.318;2022-08-14T03:19:57;100325.97;;;16.01;71.12
43125;BME280;49182;50.788;7.318;2022-08-14T03:22:24;100328.09;;;16.05;72.82
43125;BME280;49182;50.788;7.318;2022-08-14T03:24:54;100321.75;;;16.06;73.17
43125;BME280;49182;50.788;7.318;2022-08-14T03:27:22;100318.63;;;16.03;73.39
43125;BME280;49182;50.788;7.318;2022-08-14T03:30:01;100322.31;;;16.02;73.75
43125;BME280;49182;50.788;7.318;2022-08-14T03:32:31;100321.47;;;16.01;74.14
43125;BME280;49182;50.788;7.318;2022-08-14T03:34:58;100319.34;;;15.97;73.87
43125;BME280;49182;50.788;7.318;2022-08-14T03:37:25;100318.03;;;15.93;74.04
43125;BME280;49182;50.788;7.318;2022-08-14T03:40:13;100315.06;;;15.88;74.44
43125;BME280;49182;50.788;7.318;2022-08-14T03:42:44;100307.59;;;15.83;74.71
43125;BME280;49182;50.788;7.318;2022-08-14T03:45:11;100310.59;;;15.80;74.70
43125;BME280;49182;50.788;7.318;2022-08-14T03:47:57;100306.66;;;15.76;74.97
43125;BME280;49182;50.788;7.318;2022-08-14T03:50:27;100286.75;;;15.64;75.42
43125;BME280;49182;50.788;7.318;2022-08-14T03:52:58;100302.69;;;15.72;75.71
43125;BME280;49182;50.788;7.318;2022-08-14T03:55:27;100301.84;;;15.71;75.80
43125;BME280;49182;50.788;7.318;2022-08-14T03:57:56;100308.53;;;15.67;75.88
43125;BME280;49182;50.788;7.318;2022-08-14T04:00:22;100302.25;;;15.60;75.70
43125;BME280;49182;50.788;7.318;2022-08-14T04:03:09;100277.00;;;15.48;75.77
43125;BME280;49182;50.788;7.318;2022-08-14T04:05:36;100297.75;;;15.61;76.37
43125;BME280;49182;50.788;7.318;2022-08-14T04:08:13;100303.59;;;15.56;76.08
43125;BME280;49182;50.788;7.318;2022-08-14T04:10:58;100314.72;;;15.52;75.83
43125;BME280;49182;50.788;7.318;2022-08-14T04:13:27;100305.91;;;15.51;75.39
43125;BME280;49182;50.788;7.318;2022-08-14T04:16:00;100292.00;;;15.41;75.10
43125;BME280;49182;50.788;7.318;2022-08-14T04:18:32;100310.75;;;15.48;74.97
43125;BME280;49182;50.788;7.318;2022-08-14T04:20:59;100313.75;;;15.53;75.53
43125;BME280;49182;50.788;7.318;2022-08-14T04:23:26;100311.94;;;15.53;75.87
43125;BME280;49182;50.788;7.318;2022-08-14T04:26:01;100309.28;;;15.53;76.27
43125;BME280;49182;50.788;7.318;2022-08-14T04:28:27;100317.09;;;15.55;76.65
43125;BME280;49182;50.788;7.318;2022-08-14T04:31:15;100310.41;;;15.59;77.18
43125;BME280;49182;50.788;7.318;2022-08-14T04:33:42;100310.25;;;15.60;77.65
43125;BME280;49182;50.788;7.318;2022-08-14T04:36:09;100305.59;;;15.54;78.02
43125;BME280;49182;50.788;7.318;2022-08-14T04:38:43;100298.75;;;15.60;78.37
43125;BME280;49182;50.788;7.318;2022-08-14T04:41:14;100296.44;;;15.57;78.43
43125;BME280;49182;50.788;7.318;2022-08-14T04:43:41;100294.13;;;15.54;78.00
43125;BME280;49182;50.788;7.318;2022-08-14T04:46:09;100297.94;;;15.51;78.05
43125;BME280;49182;50.788;7.318;2022-08-14T04:48:56;100298.25;;;15.56;78.02
43125;BME280;49182;50.788;7.318;2022-08-14T04:51:25;100296.56;;;15.63;77.91
43125;BME280;49182;50.788;7.318;2022-08-14T04:53:53;100285.38;;;15.68;78.02
43125;BME280;49182;50.788;7.318;2022-08-14T04:56:23;100290.81;;;15.83;77.91
43125;BME280;49182;50.788;7.318;2022-08-14T04:59:01;100277.66;;;15.81;77.79
43125;BME280;49182;50.788;7.318;2022-08-14T05:01:29;100294.88;;;15.93;78.05
43125;BME280;49182;50.788;7.318;2022-08-14T05:04:05;100275.63;;;15.91;77.94
43125;BME280;49182;50.788;7.318;2022-08-14T05:06:32;100289.81;;;16.06;78.02
43125;BME280;49182;50.788;7.318;2022-08-14T05:09:05;100256.97;;;15.91;77.97
43125;BME280;49182;50.788;7.318;2022-08-14T05:11:33;100283.59;;;16.14;77.63
43125;BME280;49182;50.788;7.318;2022-08-14T05:14:03;100280.22;;;16.20;77.90
43125;BME280;49182;50.788;7.318;2022-08-14T05:16:50;100280.50;;;16.25;77.92
43125;BME280;49182;50.788;7.318;2022-08-14T05:19:18;100250.13;;;16.11;77.89
43125;BME280;49182;50.788;7.318;2022-08-14T05:21:53;100281.91;;;16.36;77.81
43125;BME280;49182;50.788;7.318;2022-08-14T05:24:40;100290.22;;;16.41;77.71
43125;BME280;49182;50.788;7.318;2022-08-14T05:27:07;100276.16;;;16.47;77.83
43125;BME280;49182;50.788;7.318;2022-08-14T05:29:34;100279.13;;;16.52;77.79
43125;BME280;49182;50.788;7.318;2022-08-14T05:32:01;100289.06;;;16.58;77.62
43125;BME280;49182;50.788;7.318;2022-08-14T05:34:28;100276.97;;;16.70;77.19
43125;BME280;49182;50.788;7.318;2022-08-14T05:36:57;100265.19;;;16.79;76.43
43125;BME280;49182;50.788;7.318;2022-08-14T05:39:28;100267.84;;;16.79;76.41
43125;BME280;49182;50.788;7.318;2022-08-14T05:41:56;100268.78;;;16.86;76.10
43125;BME280;49182;50.788;7.318;2022-08-14T05:44:25;100268.88;;;16.93;75.72
43125;BME280;49182;50.788;7.318;2022-08-14T05:46:55;100262.63;;;17.01;75.81
43125;BME280;49182;50.788;7.318;2022-08-14T05:49:22;100252.88;;;17.08;76.01
43125;BME280;49182;50.788;7.318;2022-08-14T05:51:58;100241.47;;;17.14;76.69
43125;BME280;49182;50.788;7.318;2022-08-14T05:54:27;100262.88;;;17.35;76.59
43125;BME280;49182;50.788;7.318;2022-08-14T05:57:01;100258.91;;;17.46;76.21
43125;BME280;49182;50.788;7.318;2022-08-14T05:59:30;100264.41;;;17.59;76.03
43125;BME280;49182;50.788;7.318;2022-08-14T06:02:05;100244.25;;;17.71;75.37
43125;BME280;49182;50.788;7.318;2022-08-14T06:04:32;100249.91;;;17.83;75.17
43125;BME280;49182;50.788;7.318;2022-08-14T06:06:58;100233.13;;;17.89;74.67
43125;BME280;49182;50.788;7.318;2022-08-14T06:09:25;100239.44;;;18.09;74.15
43125;BME280;49182;50.788;7.318;2022-08-14T06:11:52;100243.06;;;18.23;73.74
43125;BME280;49182;50.788;7.318;2022-08-14T06:14:19;100240.13;;;18.39;73.52
43125;BME280;49182;50.788;7.318;2022-08-14T06:16:51;100228.25;;;18.48;73.49
43125;BME280;49182;50.788;7.318;2022-08-14T06:19:19;100235.22;;;18.64;73.28
43125;BME280;49182;50.788;7.318;2022-08-14T06:21:48;100224.38;;;18.78;72.58
43125;BME280;49182;50.788;7.318;2022-08-14T06:24:24;100226.75;;;18.94;72.00
43125;BME280;49182;50.788;7.318;2022-08-14T06:26:51;100229.69;;;19.06;71.72
43125;BME280;49182;50.788;7.318;2022-08-14T06:29:31;100230.56;;;19.20;71.08
43125;BME280;49182;50.788;7.318;2022-08-14T06:32:03;100220.94;;;19.38;70.37
43125;BME280;49182;50.788;7.318;2022-08-14T06:34:49;100221.44;;;19.49;70.26
43125;BME280;49182;50.788;7.318;2022-08-14T06:37:40;100226.84;;;19.62;69.94
43125;BME280;49182;50.788;7.318;2022-08-14T06:40:09;100230.97;;;19.77;69.97
43125;BME280;49182;50.788;7.318;2022-08-14T06:42:54;100225.03;;;19.95;69.96
43125;BME280;49182;50.788;7.318;2022-08-14T06:45:21;100211.63;;;20.15;69.66
43125;BME280;49182;50.788;7.318;2022-08-14T06:47:53;100214.94;;;20.30;69.15
43125;BME280;49182;50.788;7.318;2022-08-14T06:50:24;100213.09;;;20.50;67.85
43125;BME280;49182;50.788;7.318;2022-08-14T06:52:54;100192.88;;;20.54;67.46
43125;BME280;49182;50.788;7.318;2022-08-14T06:55:21;100199.59;;;20.83;66.73
43125;BME280;49182;50.788;7.318;2022-08-14T06:57:55;100208.41;;;21.10;65.05
43125;BME280;49182;50.788;7.318;2022-08-14T07:00:25;100203.16;;;21.35;64.42
43125;BME280;49182;50.788;7.318;2022-08-14T07:02:58;100206.78;;;21.54;64.32
43125;BME280;49182;50.788;7.318;2022-08-14T07:05:26;100206.06;;;21.71;64.05
43125;BME280;49182;50.788;7.318;2022-08-14T07:07:52;100198.94;;;21.84;62.91
43125;BME280;49182;50.788;7.318;2022-08-14T07:10:20;100201.69;;;22.08;61.72
43125;BME280;49182;50.788;7.318;2022-08-14T07:12:46;100192.78;;;22.33;60.26
43125;BME280;49182;50.788;7.318;2022-08-14T07:15:28;100180.13;;;22.58;58.06
43125;BME280;49182;50.788;7.318;2022-08-14T07:17:54;100170.53;;;22.62;58.16
43125;BME280;49182;50.788;7.318;2022-08-14T07:20:24;100181.25;;;22.87;58.16
43125;BME280;49182;50.788;7.318;2022-08-14T07:22:57;100186.41;;;23.07;57.67
43125;BME280;49182;50.788;7.318;2022-08-14T07:25:32;100174.41;;;23.21;56.85
43125;BME280;49182;50.788;7.318;2022-08-14T07:28:08;100180.31;;;23.48;55.64
43125;BME280;49182;50.788;7.318;2022-08-14T07:30:38;100173.28;;;23.58;55.44
43125;BME280;49182;50.788;7.318;2022-08-14T07:33:16;100163.53;;;23.75;55.05
43125;BME280;49182;50.788;7.318;2022-08-14T07:35:47;100175.16;;;23.88;54.87
43125;BME280;49182;50.788;7.318;2022-08-14T07:38:25;100169.78;;;24.11;54.40
43125;BME280;49182;50.788;7.318;2022-08-14T07:40:53;100166.78;;;24.31;52.74
43125;BME280;49182;50.788;7.318;2022-08-14T07:43:21;100163.25;;;24.42;53.16
43125;BME280;49182;50.788;7.318;2022-08-14T07:45:49;100159.59;;;24.59;52.33
43125;BME280;49182;50.788;7.318;2022-08-14T07:48:19;100170.47;;;24.76;51.78
43125;BME280;49182;50.788;7.318;2022-08-14T07:50:52;100161.91;;;24.91;51.28
43125;BME280;49182;50.788;7.318;2022-08-14T07:53:28;100165.41;;;25.03;50.52
43125;BME280;49182;50.788;7.318;2022-08-14T07:55:59;100152.53;;;25.22;49.93
43125;BME280;49182;50.788;7.318;2022-08-14T07:58:46;100154.13;;;25.34;49.37
43125;BME280;49182;50.788;7.318;2022-08-14T08:01:18;100155.84;;;25.41;49.97
43125;BME280;49182;50.788;7.318;2022-08-14T08:03:46;100170.84;;;25.60;49.15
43125;BME280;49182;50.788;7.318;2022-08-14T08:06:18;100167.00;;;25.72;48.54
43125;BME280;49182;50.788;7.318;2022-08-14T08:08:46;100164.16;;;25.79;48.61
43125;BME280;49182;50.788;7.318;2022-08-14T08:11:31;100168.66;;;25.90;48.54
43125;BME280;49182;50.788;7.318;2022-08-14T08:14:04;100168.16;;;26.10;47.57
43125;BME280;49182;50.788;7.318;2022-08-14T08:16:36;100170.44;;;26.18;47.12
43125;BME280;49182;50.788;7.318;2022-08-14T08:19:03;100172.84;;;26.14;47.30
43125;BME280;49182;50.788;7.318;2022-08-14T08:21:40;100156.28;;;26.28;47.42
43125;BME280;49182;50.788;7.318;2022-08-14T08:24:10;100159.84;;;26.50;46.50
43125;BME280;49182;50.788;7.318;2022-08-14T08:26:44;100155.56;;;26.54;46.75
43125;BME280;49182;50.788;7.318;2022-08-14T08:29:17;100170.31;;;26.63;46.87
43125;BME280;49182;50.788;7.318;2022-08-14T08:31:46;100160.78;;;26.77;46.09
43125;BME280;49182;50.788;7.318;2022-08-14T08:34:18;100160.44;;;26.90;45.62
43125;BME280;49182;50.788;7.318;2022-08-14T08:36:50;100169.72;;;27.00;45.34
43125;BME280;49182;50.788;7.318;2022-08-14T08:39:18;100162.66;;;26.98;45.53
43125;BME280;49182;50.788;7.318;2022-08-14T08:41:47;100161.03;;;27.19;45.12
43125;BME280;49182;50.788;7.318;2022-08-14T08:44:19;100150.59;;;27.33;44.24
43125;BME280;49182;50.788;7.318;2022-08-14T08:46:59;100147.94;;;27.38;44.29
43125;BME280;49182;50.788;7.318;2022-08-14T08:49:34;100135.00;;;27.45;44.21
43125;BME280;49182;50.788;7.318;2022-08-14T08:52:09;100134.63;;;27.58;44.16
43125;BME280;49182;50.788;7.318;2022-08-14T08:54:52;100143.69;;;27.74;43.31
43125;BME280;49182;50.788;7.318;2022-08-14T08:57:19;100134.00;;;27.83;42.84
43125;BME280;49182;50.788;7.318;2022-08-14T08:59:47;100128.31;;;27.85;42.39
43125;BME280;49182;50.788;7.318;2022-08-14T09:02:21;100128.19;;;28.01;42.54
43125;BME280;49182;50.788;7.318;2022-08-14T09:04:47;100121.44;;;28.09;40.95
43125;BME280;49182;50.788;7.318;2022-08-14T09:07:25;100111.34;;;28.04;42.04
43125;BME280;49182;50.788;7.318;2022-08-14T09:09:53;100113.03;;;28.10;41.78
43125;BME280;49182;50.788;7.318;2022-08-14T09:12:26;100121.09;;;28.32;41.18
43125;BME280;49182;50.788;7.318;2022-08-14T09:15:00;100122.78;;;28.48;40.30
43125;BME280;49182;50.788;7.318;2022-08-14T09:17:27;100120.63;;;28.50;39.85
43125;BME280;49182;50.788;7.318;2022-08-14T09:19:54;100126.69;;;28.63;39.66
43125;BME280;49182;50.788;7.318;2022-08-14T09:22:22;100111.47;;;28.72;38.89
43125;BME280;49182;50.788;7.318;2022-08-14T09:25:04;100104.75;;;28.84;39.01
43125;BME280;49182;50.788;7.318;2022-08-14T09:27:33;100106.97;;;28.87;39.48
43125;BME280;49182;50.788;7.318;2022-08-14T09:30:00;100092.31;;;28.93;38.62
43125;BME280;49182;50.788;7.318;2022-08-14T09:32:47;100090.97;;;29.11;38.05
43125;BME280;49182;50.788;7.318;2022-08-14T09:35:32;100093.19;;;29.24;37.50
43125;BME280;49182;50.788;7.318;2022-08-14T09:38:09;100085.84;;;29.30;38.43
43125;BME280;49182;50.788;7.318;2022-08-14T09:40:58;100088.06;;;29.48;37.67
43125;BME280;49182;50.788;7.318;2022-08-14T09:43:32;100081.28;;;29.61;36.76
43125;BME280;49182;50.788;7.318;2022-08-14T09:46:06;100064.94;;;29.66;36.50
43125;BME280;49182;50.788;7.318;2022-08-14T09:48:33;100073.59;;;29.88;35.70
43125;BME280;49182;50.788;7.318;2022-08-14T09:51:00;100070.38;;;29.96;35.03
43125;BME280;49182;50.788;7.318;2022-08-14T09:53:37;100064.38;;;29.84;34.87
43125;BME280;49182;50.788;7.318;2022-08-14T09:56:25;100064.66;;;29.93;35.39
43125;BME280;49182;50.788;7.318;2022-08-14T09:59:02;100067.91;;;30.05;34.74
43125;BME280;49182;50.788;7.318;2022-08-14T10:01:35;100054.00;;;30.17;34.29
43125;BME280;49182;50.788;7.318;2022-08-14T10:04:05;100065.09;;;30.35;33.16
43125;BME280;49182;50.788;7.318;2022-08-14T10:06:50;100063.19;;;30.31;32.84
43125;BME280;49182;50.788;7.318;2022-08-14T10:09:17;100058.56;;;30.26;33.37
43125;BME280;49182;50.788;7.318;2022-08-14T10:11:55;100059.09;;;30.38;33.76
43125;BME280;49182;50.788;7.318;2022-08-14T10:14:27;100042.16;;;30.46;34.04
43125;BME280;49182;50.788;7.318;2022-08-14T10:17:03;100048.41;;;30.57;33.06
43125;BME280;49182;50.788;7.318;2022-08-14T10:19:32;100055.19;;;30.65;33.47
43125;BME280;49182;50.788;7.318;2022-08-14T10:22:03;100058.66;;;30.75;33.48
43125;BME280;49182;50.788;7.318;2022-08-14T10:24:50;100046.91;;;30.85;33.15
43125;BME280;49182;50.788;7.318;2022-08-14T10:27:20;100035.56;;;30.63;33.21
43125;BME280;49182;50.788;7.318;2022-08-14T10:29:48;100036.41;;;30.58;33.69
43125;BME280;49182;50.788;7.318;2022-08-14T10:32:17;100043.75;;;30.63;33.73
43125;BME280;49182;50.788;7.318;2022-08-14T10:35:03;100033.31;;;30.75;32.85
43125;BME280;49182;50.788;7.318;2022-08-14T10:37:36;100031.16;;;30.72;33.63
43125;BME280;49182;50.788;7.318;2022-08-14T10:40:06;100024.00;;;30.86;33.48
43125;BME280;49182;50.788;7.318;2022-08-14T10:42:55;100026.06;;;30.99;32.78
43125;BME280;49182;50.788;7.318;2022-08-14T10:45:23;100025.78;;;31.06;32.99
43125;BME280;49182;50.788;7.318;2022-08-14T10:47:51;100013.25;;;31.00;32.24
43125;BME280;49182;50.788;7.318;2022-08-14T10:50:39;100012.06;;;30.77;32.45
43125;BME280;49182;50.788;7.318;2022-08-14T10:53:06;99979.59;;;30.75;32.74
43125;BME280;49182;50.788;7.318;2022-08-14T10:55:35;99993.94;;;30.96;32.65
43125;BME280;49182;50.788;7.318;2022-08-14T10:58:06;99993.31;;;31.09;32.37
43125;BME280;49182;50.788;7.318;2022-08-14T11:00:34;99996.41;;;31.31;31.66
43125;BME280;49182;50.788;7.318;2022-08-14T11:03:03;99997.31;;;31.51;31.15
43125;BME280;49182;50.788;7.318;2022-08-14T11:05:38;99992.63;;;31.56;30.62
43125;BME280;49182;50.788;7.318;2022-08-14T11:08:07;99994.72;;;31.69;29.87
43125;BME280;49182;50.788;7.318;2022-08-14T11:10:42;100007.66;;;31.59;29.79
43125;BME280;49182;50.788;7.318;2022-08-14T11:13:14;100004.97;;;31.49;30.86
43125;BME280;49182;50.788;7.318;2022-08-14T11:15:41;100008.53;;;31.49;30.45
43125;BME280;49182;50.788;7.318;2022-08-14T11:18:10;99970.03;;;31.51;30.64
43125;BME280;49182;50.788;7.318;2022-08-14T11:20:49;99984.81;;;31.79;30.67
43125;BME280;49182;50.788;7.318;2022-08-14T11:23:20;99988.78;;;32.10;30.55
43125;BME280;49182;50.788;7.318;2022-08-14T11:25:47;99984.94;;;32.35;29.57
43125;BME280;49182;50.788;7.318;2022-08-14T11:28:22;99962.16;;;32.44;29.14
43125;BME280;49182;50.788;7.318;2022-08-14T11:31:10;99967.75;;;32.53;29.31
43125;BME280;49182;50.788;7.318;2022-08-14T11:33:38;99956.78;;;32.58;30.00
43125;BME280;49182;50.788;7.318;2022-08-14T11:36:07;99956.97;;;32.62;29.65
43125;BME280;49182;50.788;7.318;2022-08-14T11:38:44;99959.09;;;32.70;29.59
43125;BME280;49182;50.788;7.318;2022-08-14T11:41:13;99956.78;;;32.77;29.18
43125;BME280;49182;50.788;7.318;2022-08-14T11:43:45;99939.31;;;32.91;29.10
43125;BME280;49182;50.788;7.318;2022-08-14T11:46:24;99943.19;;;33.23;28.34
43125;BME280;49182;50.788;7.318;2022-08-14T11:49:02;99933.25;;;33.27;27.85
43125;BME280;49182;50.788;7.318;2022-08-14T11:51:31;99925.59;;;33.43;27.64
43125;BME280;49182;50.788;7.318;2022-08-14T11:54:18;99925.63;;;33.56;27.70
43125;BME280;49182;50.788;7.318;2022-08-14T11:56:45;99929.59;;;33.78;26.79
43125;BME280;49182;50.788;7.318;2022-08-14T11:59:16;99907.28;;;33.84;26.12
43125;BME280;49182;50.788;7.318;2022-08-14T12:01:44;99918.94;;;34.03;26.14
43125;BME280;49182;50.788;7.318;2022-08-14T12:04:11;99927.06;;;34.22;25.24
43125;BME280;49182;50.788;7.318;2022-08-14T12:06:59;99913.88;;;34.46;25.21
43125;BME280;49182;50.788;7.318;2022-08-14T12:09:27;99911.28;;;34.64;25.00
43125;BME280;49182;50.788;7.318;2022-08-14T12:11:54;99919.50;;;34.64;24.69
43125;BME280;49182;50.788;7.318;2022-08-14T12:14:24;99918.94;;;34.89;24.29
43125;BME280;49182;50.788;7.318;2022-08-14T12:17:01;99912.25;;;35.04;23.18
43125;BME280;49182;50.788;7.318;2022-08-14T12:19:28;99900.72;;;34.93;23.13
43125;BME280;49182;50.788;7.318;2022-08-14T12:22:01;99893.84;;;35.04;23.23
43125;BME280;49182;50.788;7.318;2022-08-14T12:24:28;99908.22;;;35.23;23.55
43125;BME280;49182;50.788;7.318;2022-08-14T12:27:02;99898.13;;;35.19;23.72
43125;BME280;49182;50.788;7.318;2022-08-14T12:29:30;99894.91;;;35.17;23.65
43125;BME280;49182;50.788;7.318;2022-08-14T12:32:02;99898.84;;;35.02;23.83
43125;BME280;49182;50.788;7.318;2022-08-14T12:34:30;99897.56;;;35.00;23.92
43125;BME280;49182;50.788;7.318;2022-08-14T12:37:02;99879.94;;;35.01;23.56
43125;BME280;49182;50.788;7.318;2022-08-14T12:39:29;99873.84;;;35.04;23.78
43125;BME280;49182;50.788;7.318;2022-08-14T12:42:06;99872.69;;;35.27;23.45
43125;BME280;49182;50.788;7.318;2022-08-14T12:44:36;99873.41;;;35.50;23.06
43125;BME280;49182;50.788;7.318;2022-08-14T12:47:05;99862.88;;;35.43;21.95
43125;BME280;49182;50.788;7.318;2022-08-14T12:49:32;99866.94;;;35.15;22.34
43125;BME280;49182;50.788;7.318;2022-08-14T12:52:00;99864.84;;;34.89;23.04
43125;BME280;49182;50.788;7.318;2022-08-14T12:54:27;99859.78;;;34.74;23.57
43125;BME280;49182;50.788;7.318;2022-08-14T12:57:06;99854.69;;;34.45;23.43
43125;BME280;49182;50.788;7.318;2022-08-14T12:59:36;99846.28;;;34.42;23.86
43125;BME280;49182;50.788;7.318;2022-08-14T13:02:20;99843.78;;;34.54;24.12
43125;BME280;49182;50.788;7.318;2022-08-14T13:04:52;99837.56;;;34.62;22.62
43125;BME280;49182;50.788;7.318;2022-08-14T13:07:19;99833.75;;;34.72;22.16
43125;BME280;49182;50.788;7.318;2022-08-14T13:09:53;99816.88;;;34.78;22.95
43125;BME280;49182;50.788;7.318;2022-08-14T13:12:23;99832.22;;;35.10;22.76
43125;BME280;49182;50.788;7.318;2022-08-14T13:15:06;99827.38;;;35.16;22.22
43125;BME280;49182;50.788;7.318;2022-08-14T13:17:40;99828.50;;;35.15;21.87
43125;BME280;49182;50.788;7.318;2022-08-14T13:20:08;99836.00;;;35.23;21.81